»·PEaware :: N7791P KBZN-KGTF

N7791P :: KBZN-KGTF

FLIGHT INFORMATION

Flight Status: Arrived
Operator: Privately registered:
United States
More flights under this callsign
Pilot: Tom L. (6372)
Aircraft: PIPER PA-24 COMMANCHE
(PA24)
More flights by this aircraft type
Origin: KBZN Gallatin
United States
Destination: KGTF Great Falls Intl
United States
More flights between these airports :: More routes between these airports
Route: +BZN V365 SWEDD V536 GTF
File this flight plan on PilotEdge
Remarks:
Altitude:
(Current/Filed)
12,000ft
Speed:
(Current/Filed)
145kts
Departed: 20-Apr-19 01:00 PM
Arrived: 20-Apr-19 02:02 PM
Distance/Time
Traveled:
102nm/1:02
Distance/Time
To Go:
Arrived

Flight Plot

Page will automatically refresh every two minutes.

Flight plan parsing failed; only flown route is shown


Map Options




Map Legend


Flown Route
Filed Route
Departure Airport
Arrival Airport
Navaid (VOR, NDB)
Fix

Horizontal Profiles

Position Reports

Time Latitude Longitude Heading Altitude Ground
Speed
20-Apr-19 12:45 45.774696 -111.154643 223 4475ft 0kts
20-Apr-19 12:46 45.774696 -111.154644 223 4475ft 0kts
20-Apr-19 12:47 45.774694 -111.154646 223 4475ft 0kts
20-Apr-19 12:48 45.774693 -111.154649 224 4475ft 0kts
20-Apr-19 12:49 45.774691 -111.154651 224 4475ft 0kts
20-Apr-19 12:50 45.774689 -111.154653 224 4475ft 0kts
20-Apr-19 12:51 45.774687 -111.154657 224 4475ft 0kts
20-Apr-19 12:52 45.774683 -111.154662 224 4475ft 0kts
20-Apr-19 12:53 45.774679 -111.154667 224 4475ft 0kts
20-Apr-19 12:54 45.775571 -111.153337 120 4475ft 1kts
20-Apr-19 12:55 45.774123 -111.151168 131 4475ft 23kts
20-Apr-19 12:56 45.769805 -111.145274 128 4475ft 13kts
20-Apr-19 12:57 45.769377 -111.144528 89 4475ft 0kts
20-Apr-19 12:58 45.769854 -111.143200 41 4475ft 22kts
20-Apr-19 12:59 45.783194 -111.159745 315 4718ft 103kts
20-Apr-19 13:00 45.780194 -111.192243 209 5494ft 119kts
20-Apr-19 13:01 45.755226 -111.221244 242 6283ft 118kts
20-Apr-19 13:02 45.742871 -111.265052 241 7021ft 118kts
20-Apr-19 13:03 45.727015 -111.305949 238 7832ft 117kts
20-Apr-19 13:04 45.710625 -111.346867 238 8522ft 119kts
20-Apr-19 13:05 45.694046 -111.388154 237 9918ft 119kts
20-Apr-19 13:06 45.678021 -111.427998 239 10647ft 110kts
20-Apr-19 13:07 45.663216 -111.464744 239 11464ft 102kts
20-Apr-19 13:08 45.679723 -111.481119 53 11973ft 149kts
20-Apr-19 13:09 45.699287 -111.417406 66 12020ft 197kts
20-Apr-19 13:10 45.723068 -111.343485 65 11959ft 198kts
20-Apr-19 13:11 45.745568 -111.274054 65 11961ft 186kts
20-Apr-19 13:12 45.768155 -111.204208 65 11956ft 191kts
20-Apr-19 13:13 45.810428 -111.170756 335 11961ft 173kts
20-Apr-19 13:14 45.852317 -111.195013 328 11964ft 157kts
20-Apr-19 13:15 45.894150 -111.219249 328 11965ft 162kts
20-Apr-19 13:16 45.935295 -111.243150 328 11970ft 156kts
20-Apr-19 13:17 45.975198 -111.266369 328 11978ft 154kts
20-Apr-19 13:19 46.016338 -111.290341 330 11976ft 160kts
20-Apr-19 13:20 46.056577 -111.313767 330 11986ft 153kts
20-Apr-19 13:21 46.096554 -111.337132 330 11910ft 154kts
20-Apr-19 13:22 46.135916 -111.360172 330 11918ft 152kts
20-Apr-19 13:23 46.175733 -111.383657 332 11938ft 156kts
20-Apr-19 13:24 46.215924 -111.407155 327 11947ft 154kts
20-Apr-19 13:25 46.255464 -111.431130 332 11955ft 155kts
20-Apr-19 13:26 46.295557 -111.453849 330 11958ft 153kts
20-Apr-19 13:27 46.334750 -111.477039 331 11965ft 152kts
20-Apr-19 13:28 46.373913 -111.500190 331 11976ft 151kts
20-Apr-19 13:29 46.412947 -111.523290 331 11982ft 151kts
20-Apr-19 13:30 46.452475 -111.544800 351 11981ft 157kts
20-Apr-19 13:31 46.496684 -111.538877 359 11991ft 159kts
20-Apr-19 13:32 46.540864 -111.533052 359 11993ft 159kts
20-Apr-19 13:33 46.584340 -111.527355 0 11995ft 159kts
20-Apr-19 13:34 46.628487 -111.521566 0 12000ft 159kts
20-Apr-19 13:35 46.672730 -111.515761 0 12001ft 159kts
20-Apr-19 13:36 46.717328 -111.509909 0 12000ft 162kts
20-Apr-19 13:37 46.761863 -111.504031 0 12003ft 159kts
20-Apr-19 13:38 46.805989 -111.501154 346 12008ft 155kts
20-Apr-19 13:39 46.844949 -111.523927 318 12008ft 149kts
20-Apr-19 13:40 46.869968 -111.570073 296 12011ft 144kts
20-Apr-19 13:41 46.904946 -111.594399 353 12021ft 157kts
20-Apr-19 13:41 46.941529 -111.596061 353 12014ft 157kts
20-Apr-19 13:43 46.992129 -111.601769 349 12017ft 156kts
20-Apr-19 13:44 47.035440 -111.607997 350 12011ft 157kts
20-Apr-19 13:45 47.079217 -111.614000 351 12032ft 157kts
20-Apr-19 13:46 47.122202 -111.620125 349 11916ft 148kts
20-Apr-19 13:46 47.154589 -111.625760 349 11549ft 139kts
20-Apr-19 13:48 47.199214 -111.629940 349 10977ft 135kts
20-Apr-19 13:48 47.230190 -111.635057 356 10627ft 132kts
20-Apr-19 13:49 47.267212 -111.638380 351 10188ft 134kts
20-Apr-19 13:50 47.303988 -111.645746 346 9793ft 134kts
20-Apr-19 13:51 47.305358 -111.687854 213 9388ft 139kts
20-Apr-19 13:52 47.271841 -111.717647 183 9247ft 140kts
20-Apr-19 13:53 47.260969 -111.679219 29 9007ft 146kts
20-Apr-19 13:54 47.293347 -111.646270 49 8762ft 154kts
20-Apr-19 13:55 47.323845 -111.595680 46 7726ft 172kts
20-Apr-19 13:56 47.356571 -111.549344 43 6703ft 153kts
20-Apr-19 13:57 47.386066 -111.506745 45 5967ft 142kts
20-Apr-19 13:58 47.411185 -111.469151 43 5255ft 119kts
20-Apr-19 13:59 47.434349 -111.435087 40 4666ft 117kts
20-Apr-19 14:00 47.457662 -111.400983 41 4058ft 119kts
20-Apr-19 14:01 47.475102 -111.375461 37 3681ft 39kts

Navigation Log

Ident Type
Flight plan parsing failed, navigation log unavailable